createdAt,value
2023-03-11T00:00:09.643Z,1.30
2023-03-11T00:05:16.807Z,1.30
2023-03-11T00:10:41.491Z,1.17
2023-03-11T00:15:49.488Z,1.33
2023-03-11T00:20:53.004Z,1.20
2023-03-11T00:25:59.765Z,1.33
2023-03-11T00:31:05.406Z,1.48
2023-03-11T00:36:15.124Z,1.42
2023-03-11T00:41:19.966Z,1.30
2023-03-11T00:46:23.509Z,1.50
2023-03-11T00:51:28.163Z,1.30
2023-03-11T00:56:33.103Z,1.35
2023-03-11T01:01:36.833Z,1.50
2023-03-11T01:06:45.596Z,1.30
2023-03-11T01:11:51.635Z,1.30
2023-03-11T01:16:55.418Z,1.80
2023-03-11T01:21:58.907Z,1.42
2023-03-11T01:27:03.682Z,1.42
2023-03-11T01:32:08.664Z,1.30
2023-03-11T01:37:13.263Z,1.60
2023-03-11T01:42:18.184Z,1.40
2023-03-11T01:47:40.284Z,1.40
2023-03-11T01:52:46.710Z,1.50
2023-03-11T01:57:53.218Z,1.40
2023-03-11T02:02:59.947Z,1.40
2023-03-11T02:08:04.521Z,1.25
2023-03-11T02:13:12.451Z,1.50
2023-03-11T02:18:18.493Z,1.50
2023-03-11T02:23:27.357Z,1.50
2023-03-11T02:28:33.628Z,1.45
2023-03-11T02:33:39.000Z,1.70
2023-03-11T02:38:43.615Z,1.30
2023-03-11T02:43:49.643Z,1.48
2023-03-11T02:48:55.778Z,1.40
2023-03-11T02:54:06.299Z,1.58
2023-03-11T02:59:13.081Z,1.50
2023-03-11T03:04:16.843Z,1.50
2023-03-11T03:09:20.365Z,1.40
2023-03-11T03:14:25.278Z,1.30
2023-03-11T03:19:28.854Z,1.40
2023-03-11T03:24:32.549Z,1.58
2023-03-11T03:29:37.531Z,1.40
2023-03-11T03:34:41.019Z,1.50
2023-03-11T03:39:45.905Z,1.50
2023-03-11T03:44:51.448Z,1.40
2023-03-11T03:49:55.770Z,1.40
2023-03-11T03:54:59.298Z,1.50
2023-03-11T04:00:09.031Z,1.42
2023-03-11T04:05:17.251Z,1.27
2023-03-11T04:10:22.219Z,1.40
2023-03-11T04:15:27.653Z,1.30
2023-03-11T04:20:31.193Z,1.45
2023-03-11T04:25:35.369Z,1.52
2023-03-11T04:30:42.024Z,1.60
2023-03-11T04:35:45.972Z,1.38
2023-03-11T04:40:50.668Z,1.30
2023-03-11T04:45:55.961Z,1.42
2023-03-11T04:50:59.548Z,1.40
2023-03-11T04:56:05.913Z,1.50
2023-03-11T05:01:12.584Z,1.30
2023-03-11T05:06:16.185Z,1.40
2023-03-11T05:11:20.086Z,1.50
2023-03-11T05:16:26.364Z,1.35
2023-03-11T05:21:29.934Z,1.40
2023-03-11T05:26:33.807Z,1.48
2023-03-11T05:31:39.436Z,1.40
2023-03-11T05:36:42.996Z,1.50
2023-03-11T05:41:46.552Z,1.27
2023-03-11T05:46:52.980Z,1.48
2023-03-11T05:51:58.669Z,1.52
2023-03-11T05:57:03.336Z,1.30
2023-03-11T06:02:09.537Z,1.40
2023-03-11T06:07:14.822Z,1.40
2023-03-11T06:12:20.491Z,1.30
2023-03-11T06:17:48.080Z,1.40
2023-03-11T06:22:52.398Z,1.40
2023-03-11T06:27:59.096Z,1.30
2023-03-11T06:33:04.203Z,1.50
2023-03-11T06:38:07.944Z,1.30
2023-03-11T06:43:11.397Z,1.27
2023-03-11T06:48:18.821Z,1.30
2023-03-11T06:53:23.776Z,1.20
2023-03-11T06:58:27.643Z,1.20
2023-03-11T07:03:32.954Z,1.30
2023-03-11T07:08:36.408Z,1.10
2023-03-11T07:13:40.128Z,1.20
2023-03-11T07:18:47.760Z,1.10
2023-03-11T07:23:55.797Z,1.20
2023-03-11T07:29:00.033Z,1.30
2023-03-11T07:34:11.206Z,1.20
2023-03-11T07:39:20.346Z,1.30
2023-03-11T07:44:23.765Z,1.30
2023-03-11T07:49:28.574Z,1.02
2023-03-11T07:54:31.988Z,1.30
2023-03-11T07:59:35.426Z,1.52
2023-03-11T08:04:40.273Z,1.27
2023-03-11T08:09:43.777Z,1.30
2023-03-11T08:14:47.154Z,1.20
2023-03-11T08:19:52.710Z,1.10
2023-03-11T08:24:56.618Z,1.23
2023-03-11T08:30:00.222Z,1.35
2023-03-11T08:35:05.783Z,1.10
2023-03-11T08:40:11.895Z,1.15
2023-03-11T08:45:15.369Z,1.08
2023-03-11T08:50:23.441Z,1.20
2023-03-11T08:55:28.515Z,1.17
2023-03-11T09:00:31.985Z,1.20
2023-03-11T09:05:36.863Z,1.20
2023-03-11T09:10:40.407Z,1.10
2023-03-11T09:15:43.836Z,1.20
2023-03-11T09:20:48.681Z,1.20
2023-03-11T09:25:52.106Z,1.20
2023-03-11T09:30:55.517Z,1.08
2023-03-11T09:36:00.830Z,1.13
2023-03-11T09:41:14.646Z,1.20
2023-03-11T09:47:07.228Z,1.23
2023-03-11T09:52:16.134Z,1.27
2023-03-11T09:57:25.604Z,1.10
2023-03-11T10:02:29.517Z,1.25
2023-03-11T10:07:41.456Z,1.00
2023-03-11T10:12:55.935Z,1.30
2023-03-11T10:18:20.265Z,1.38
2023-03-11T10:23:34.103Z,1.15
2023-03-11T10:28:41.767Z,1.10
2023-03-11T10:33:50.140Z,1.20
2023-03-11T10:38:57.255Z,1.13
2023-03-11T10:44:08.596Z,1.00
2023-03-11T10:49:17.580Z,1.25
2023-03-11T10:54:31.676Z,1.00
2023-03-11T10:59:49.654Z,1.00
2023-03-11T11:05:25.258Z,1.20
2023-03-11T11:10:31.879Z,1.00
2023-03-11T11:15:38.469Z,1.10
2023-03-11T11:20:56.532Z,1.10
2023-03-11T11:26:05.325Z,1.20
2023-03-11T11:31:25.021Z,1.00
2023-03-11T11:36:33.929Z,1.02
2023-03-11T11:41:38.707Z,1.10
2023-03-11T11:46:45.994Z,1.30
2023-03-11T11:51:54.783Z,1.00
2023-03-11T11:57:01.806Z,0.90
2023-03-11T12:02:29.083Z,1.10
2023-03-11T12:07:53.222Z,0.90
2023-03-11T12:14:00.520Z,1.00
2023-03-11T12:19:19.199Z,0.90
2023-03-11T12:24:54.326Z,0.90
2023-03-11T12:30:06.662Z,0.80
2023-03-11T12:35:22.366Z,0.80
2023-03-11T12:40:50.726Z,0.95
2023-03-11T12:45:55.782Z,0.90
2023-03-11T12:51:00.435Z,1.10
2023-03-11T12:56:15.158Z,0.93
2023-03-11T13:01:45.467Z,0.88
2023-03-11T13:07:43.456Z,1.10
2023-03-11T13:18:01.556Z,0.90
2023-03-11T13:23:29.358Z,0.90
2023-03-11T14:09:06.141Z,0.73
2023-03-11T14:14:43.862Z,0.90
2023-03-11T14:20:10.500Z,0.90
2023-03-11T14:25:23.845Z,0.80
2023-03-11T14:30:32.161Z,0.90
2023-03-11T14:35:37.781Z,0.90
2023-03-11T14:40:42.552Z,1.00
2023-03-11T14:45:47.747Z,1.00
2023-03-11T14:50:52.036Z,0.90
2023-03-11T14:56:00.158Z,0.90
2023-03-11T15:06:15.673Z,0.87
2023-03-11T15:11:25.504Z,0.80
2023-03-11T15:16:37.068Z,0.77
2023-03-11T15:21:47.818Z,0.77
2023-03-11T15:27:00.181Z,0.93
2023-03-11T15:32:40.895Z,0.75
2023-03-11T15:37:46.193Z,0.82
2023-03-11T15:42:52.278Z,0.88
2023-03-11T15:47:57.121Z,0.90
2023-03-11T15:53:00.569Z,1.00
2023-03-11T15:58:09.173Z,0.80
2023-03-11T16:03:14.178Z,0.90
2023-03-11T16:08:18.207Z,0.90
2023-03-11T16:13:21.687Z,0.90
2023-03-11T16:18:26.544Z,1.00
2023-03-11T16:23:45.016Z,0.80
2023-03-11T16:28:54.363Z,0.80
2023-03-11T16:33:59.168Z,0.60
2023-03-11T16:39:03.693Z,0.90
2023-03-11T16:44:09.579Z,0.80
2023-03-11T16:49:14.716Z,0.73
2023-03-11T16:54:18.224Z,0.65
2023-03-11T16:59:21.708Z,0.75
2023-03-11T17:04:26.550Z,0.80
2023-03-11T17:09:30.030Z,0.80
2023-03-11T17:14:33.512Z,0.80
2023-03-11T17:19:38.326Z,0.60
2023-03-11T17:24:41.928Z,0.80
2023-03-11T17:29:45.326Z,0.70
2023-03-11T17:34:50.356Z,0.88
2023-03-11T17:39:54.571Z,0.77
2023-03-11T17:44:58.757Z,0.70
2023-03-11T17:50:04.203Z,0.70
2023-03-11T17:55:10.050Z,0.70
2023-03-11T18:00:15.626Z,0.90
2023-03-11T18:05:21.187Z,0.82
2023-03-11T18:10:24.636Z,0.80
2023-03-11T18:15:28.067Z,0.75
2023-03-11T18:20:32.881Z,0.77
2023-03-11T18:25:36.320Z,0.80
2023-03-11T18:30:40.018Z,0.77
2023-03-11T18:35:45.577Z,0.70
2023-03-11T18:40:49.252Z,0.70
2023-03-11T18:45:52.685Z,0.75
2023-03-11T18:50:57.637Z,0.70
2023-03-11T18:56:03.091Z,0.70
2023-03-11T19:01:08.646Z,0.70
2023-03-11T19:06:21.296Z,0.70
2023-03-11T19:11:26.345Z,0.80
2023-03-11T19:16:29.810Z,0.70
2023-03-11T19:21:34.904Z,0.70
2023-03-11T19:26:45.106Z,0.70
2023-03-11T19:31:49.250Z,0.80
2023-03-11T19:36:54.119Z,0.70
2023-03-11T19:41:58.831Z,0.70
2023-03-11T19:47:02.242Z,0.80
2023-03-11T19:52:09.667Z,0.80
2023-03-11T19:57:13.227Z,0.70
2023-03-11T20:02:16.751Z,0.80
2023-03-11T20:07:21.680Z,0.90
2023-03-11T20:12:25.732Z,0.88
2023-03-11T20:17:29.379Z,0.80
2023-03-11T20:22:34.238Z,0.70
2023-03-11T20:27:37.716Z,0.80
2023-03-11T20:32:41.583Z,0.90
2023-03-11T20:37:48.975Z,0.80
2023-03-11T20:42:52.458Z,0.87
2023-03-11T20:47:57.072Z,0.95
2023-03-11T20:53:01.851Z,0.80
2023-03-11T20:58:05.343Z,0.90
2023-03-11T21:03:08.869Z,0.80
2023-03-11T21:08:13.971Z,0.80
2023-03-11T21:13:17.463Z,0.80
2023-03-11T21:18:21.383Z,1.02
2023-03-11T21:23:26.297Z,0.90
2023-03-11T21:28:30.199Z,1.00
2023-03-11T21:33:34.413Z,0.77
2023-03-11T21:38:40.963Z,0.80
2023-03-11T21:43:45.779Z,0.80
2023-03-11T21:48:50.262Z,1.00
2023-03-11T21:53:56.323Z,0.85
2023-03-11T21:58:59.863Z,0.90
2023-03-11T22:04:03.732Z,0.93
2023-03-11T22:09:08.825Z,0.93
2023-03-11T22:14:12.310Z,0.90
2023-03-11T22:19:16.239Z,0.90
2023-03-11T22:24:21.063Z,1.00
2023-03-11T22:29:24.484Z,0.80
2023-03-11T22:34:27.922Z,0.90
2023-03-11T22:39:32.699Z,1.00
2023-03-11T22:44:36.180Z,1.05
2023-03-11T22:49:39.566Z,1.10
2023-03-11T22:54:44.439Z,1.10
2023-03-11T22:59:47.938Z,1.02
2023-03-11T23:04:51.352Z,1.00
2023-03-11T23:09:57.240Z,1.10
2023-03-11T23:15:00.672Z,1.25
2023-03-11T23:20:07.764Z,1.00
2023-03-11T23:25:16.643Z,1.00
2023-03-11T23:30:21.302Z,0.88
2023-03-11T23:35:25.252Z,1.08
2023-03-11T23:40:30.374Z,1.13
2023-03-11T23:45:33.771Z,1.33
2023-03-11T23:50:37.240Z,1.10
2023-03-11T23:55:42.114Z,1.20
